sensor_id;sensor_type;location;lat;lon;timestamp;pressure;altitude;pressure_sealevel;temperature;humidity
20930;BME280;21895;47.072;15.132;2023-05-29T00:00:39;96765.00;;;17.09;73.05
20930;BME280;21895;47.072;15.132;2023-05-29T00:03:05;96760.00;;;16.87;73.85
20930;BME280;21895;47.072;15.132;2023-05-29T00:05:32;96760.00;;;16.82;74.20
20930;BME280;21895;47.072;15.132;2023-05-29T00:07:59;96753.00;;;16.76;74.54
20930;BME280;21895;47.072;15.132;2023-05-29T00:10:25;96753.00;;;16.81;74.48
20930;BME280;21895;47.072;15.132;2023-05-29T00:12:52;96755.00;;;16.74;74.23
20930;BME280;21895;47.072;15.132;2023-05-29T00:15:19;96750.00;;;16.62;74.08
20930;BME280;21895;47.072;15.132;2023-05-29T00:17:45;96757.00;;;16.51;74.09
20930;BME280;21895;47.072;15.132;2023-05-29T00:20:12;96761.00;;;16.50;74.08
20930;BME280;21895;47.072;15.132;2023-05-29T00:22:39;96759.00;;;16.46;73.91
20930;BME280;21895;47.072;15.132;2023-05-29T00:25:07;96756.00;;;16.33;73.88
20930;BME280;21895;47.072;15.132;2023-05-29T00:27:35;96761.00;;;16.21;74.32
20930;BME280;21895;47.072;15.132;2023-05-29T00:30:03;96756.00;;;16.06;73.95
20930;BME280;21895;47.072;15.132;2023-05-29T00:32:29;96758.00;;;15.84;74.80
20930;BME280;21895;47.072;15.132;2023-05-29T00:34:56;96755.00;;;15.79;75.24
20930;BME280;21895;47.072;15.132;2023-05-29T00:37:23;96757.00;;;15.73;76.12
20930;BME280;21895;47.072;15.132;2023-05-29T00:39:49;96750.00;;;15.79;76.01
20930;BME280;21895;47.072;15.132;2023-05-29T00:42:16;96752.00;;;15.87;75.92
20930;BME280;21895;47.072;15.132;2023-05-29T00:44:43;96744.00;;;15.95;75.84
20930;BME280;21895;47.072;15.132;2023-05-29T00:47:09;96750.00;;;15.97;75.41
20930;BME280;21895;47.072;15.132;2023-05-29T00:49:37;96746.00;;;16.10;74.95
20930;BME280;21895;47.072;15.132;2023-05-29T00:52:07;96741.00;;;16.04;75.02
20930;BME280;21895;47.072;15.132;2023-05-29T00:54:35;96745.00;;;15.97;75.65
20930;BME280;21895;47.072;15.132;2023-05-29T00:57:04;96742.00;;;16.00;75.20
20930;BME280;21895;47.072;15.132;2023-05-29T00:59:33;96736.00;;;15.98;75.16
20930;BME280;21895;47.072;15.132;2023-05-29T01:02:02;96732.00;;;15.94;75.31
20930;BME280;21895;47.072;15.132;2023-05-29T01:04:29;96738.00;;;15.96;74.78
20930;BME280;21895;47.072;15.132;2023-05-29T01:06:55;96736.00;;;16.02;74.55
20930;BME280;21895;47.072;15.132;2023-05-29T01:09:23;96740.00;;;15.90;74.87
20930;BME280;21895;47.072;15.132;2023-05-29T01:13:27;96741.00;;;15.85;74.92
20930;BME280;21895;47.072;15.132;2023-05-29T01:16:26;96752.00;;;16.00;74.04
20930;BME280;21895;47.072;15.132;2023-05-29T01:26:54;96747.00;;;15.84;73.70
20930;BME280;21895;47.072;15.132;2023-05-29T01:29:26;96757.00;;;15.29;73.61
20930;BME280;21895;47.072;15.132;2023-05-29T01:31:55;96750.00;;;15.14;74.50
20930;BME280;21895;47.072;15.132;2023-05-29T01:34:22;96754.00;;;15.05;75.37
20930;BME280;21895;47.072;15.132;2023-05-29T01:36:49;96749.00;;;15.02;75.63
20930;BME280;21895;47.072;15.132;2023-05-29T01:39:16;96747.00;;;15.01;76.05
20930;BME280;21895;47.072;15.132;2023-05-29T01:41:46;96746.00;;;15.09;76.16
20930;BME280;21895;47.072;15.132;2023-05-29T01:44:14;96750.00;;;15.14;75.18
20930;BME280;21895;47.072;15.132;2023-05-29T01:46:42;96742.00;;;14.92;75.08
20930;BME280;21895;47.072;15.132;2023-05-29T01:49:11;96746.00;;;14.75;74.50
20930;BME280;21895;47.072;15.132;2023-05-29T01:51:40;96740.00;;;14.57;74.73
20930;BME280;21895;47.072;15.132;2023-05-29T01:54:07;96741.00;;;14.48;75.03
20930;BME280;21895;47.072;15.132;2023-05-29T01:56:34;96743.00;;;14.37;76.22
20930;BME280;21895;47.072;15.132;2023-05-29T01:59:03;96745.00;;;14.33;76.74
20930;BME280;21895;47.072;15.132;2023-05-29T02:01:31;96741.00;;;14.37;77.18
20930;BME280;21895;47.072;15.132;2023-05-29T02:03:59;96738.00;;;14.51;77.30
20930;BME280;21895;47.072;15.132;2023-05-29T02:06:26;96731.00;;;14.68;76.42
20930;BME280;21895;47.072;15.132;2023-05-29T02:08:52;96735.00;;;14.64;76.52
20930;BME280;21895;47.072;15.132;2023-05-29T02:11:19;96731.00;;;14.65;76.60
20930;BME280;21895;47.072;15.132;2023-05-29T02:13:46;96726.00;;;14.65;76.61
20930;BME280;21895;47.072;15.132;2023-05-29T02:16:13;96732.00;;;14.89;75.55
20930;BME280;21895;47.072;15.132;2023-05-29T02:18:39;96724.00;;;14.76;75.85
20930;BME280;21895;47.072;15.132;2023-05-29T02:21:07;96720.00;;;14.82;75.11
20930;BME280;21895;47.072;15.132;2023-05-29T02:23:34;96718.00;;;14.62;72.71
20930;BME280;21895;47.072;15.132;2023-05-29T02:26:01;96721.00;;;14.28;73.68
20930;BME280;21895;47.072;15.132;2023-05-29T02:28:27;96717.00;;;14.16;74.64
20930;BME280;21895;47.072;15.132;2023-05-29T02:30:57;96715.00;;;14.11;76.12
20930;BME280;21895;47.072;15.132;2023-05-29T02:33:24;96723.00;;;14.23;76.67
20930;BME280;21895;47.072;15.132;2023-05-29T02:35:50;96715.00;;;14.35;76.96
20930;BME280;21895;47.072;15.132;2023-05-29T02:38:17;96716.00;;;14.51;76.21
20930;BME280;21895;47.072;15.132;2023-05-29T02:40:43;96713.00;;;14.52;75.89
20930;BME280;21895;47.072;15.132;2023-05-29T02:43:13;96717.00;;;14.45;76.04
20930;BME280;21895;47.072;15.132;2023-05-29T02:45:39;96708.00;;;14.58;75.38
20930;BME280;21895;47.072;15.132;2023-05-29T02:48:06;96714.00;;;14.58;74.88
20930;BME280;21895;47.072;15.132;2023-05-29T02:50:33;96710.00;;;14.38;75.50
20930;BME280;21895;47.072;15.132;2023-05-29T02:53:00;96716.00;;;14.13;74.56
20930;BME280;21895;47.072;15.132;2023-05-29T02:55:26;96712.00;;;13.97;74.90
20930;BME280;21895;47.072;15.132;2023-05-29T02:57:53;96711.00;;;13.88;75.21
20930;BME280;21895;47.072;15.132;2023-05-29T03:00:21;96723.00;;;13.91;74.98
20930;BME280;21895;47.072;15.132;2023-05-29T03:02:48;96717.00;;;13.55;74.60
20930;BME280;21895;47.072;15.132;2023-05-29T03:05:14;96723.00;;;13.45;75.37
20930;BME280;21895;47.072;15.132;2023-05-29T03:07:42;96728.00;;;13.47;75.25
20930;BME280;21895;47.072;15.132;2023-05-29T03:10:09;96724.00;;;13.34;76.05
20930;BME280;21895;47.072;15.132;2023-05-29T03:12:36;96715.00;;;13.52;77.56
20930;BME280;21895;47.072;15.132;2023-05-29T03:15:03;96713.00;;;13.62;78.04
20930;BME280;21895;47.072;15.132;2023-05-29T03:17:30;96722.00;;;13.83;77.56
20930;BME280;21895;47.072;15.132;2023-05-29T03:19:56;96723.00;;;13.91;76.44
20930;BME280;21895;47.072;15.132;2023-05-29T03:22:23;96726.00;;;13.74;74.56
20930;BME280;21895;47.072;15.132;2023-05-29T03:24:50;96724.00;;;13.61;74.84
20930;BME280;21895;47.072;15.132;2023-05-29T03:27:16;96731.00;;;13.48;75.72
20930;BME280;21895;47.072;15.132;2023-05-29T03:29:43;96725.00;;;13.50;75.42
20930;BME280;21895;47.072;15.132;2023-05-29T03:32:09;96730.00;;;13.43;75.63
20930;BME280;21895;47.072;15.132;2023-05-29T03:34:36;96726.00;;;13.35;75.72
20930;BME280;21895;47.072;15.132;2023-05-29T03:37:04;96728.00;;;13.28;76.66
20930;BME280;21895;47.072;15.132;2023-05-29T03:39:31;96725.00;;;13.40;76.75
20930;BME280;21895;47.072;15.132;2023-05-29T03:41:59;96730.00;;;13.40;75.73
20930;BME280;21895;47.072;15.132;2023-05-29T03:44:26;96724.00;;;13.39;75.14
20930;BME280;21895;47.072;15.132;2023-05-29T03:46:52;96728.00;;;13.42;75.63
20930;BME280;21895;47.072;15.132;2023-05-29T03:49:19;96728.00;;;13.45;75.61
20930;BME280;21895;47.072;15.132;2023-05-29T03:51:45;96733.00;;;13.42;76.98
20930;BME280;21895;47.072;15.132;2023-05-29T03:54:12;96726.00;;;13.66;76.30
20930;BME280;21895;47.072;15.132;2023-05-29T03:56:39;96735.00;;;13.92;76.73
20930;BME280;21895;47.072;15.132;2023-05-29T03:59:05;96732.00;;;13.96;76.71
20930;BME280;21895;47.072;15.132;2023-05-29T04:01:32;96729.00;;;14.13;75.79
20930;BME280;21895;47.072;15.132;2023-05-29T04:03:58;96728.00;;;14.26;75.25
20930;BME280;21895;47.072;15.132;2023-05-29T04:06:25;96731.00;;;14.40;74.73
20930;BME280;21895;47.072;15.132;2023-05-29T04:08:52;96734.00;;;14.47;74.29
20930;BME280;21895;47.072;15.132;2023-05-29T04:11:19;96730.00;;;14.44;74.20
20930;BME280;21895;47.072;15.132;2023-05-29T04:13:47;96729.00;;;14.61;74.07
20930;BME280;21895;47.072;15.132;2023-05-29T04:16:15;96734.00;;;14.80;72.63
20930;BME280;21895;47.072;15.132;2023-05-29T04:18:42;96731.00;;;14.87;72.11
20930;BME280;21895;47.072;15.132;2023-05-29T04:21:08;96744.00;;;15.02;71.52
20930;BME280;21895;47.072;15.132;2023-05-29T04:23:35;96744.00;;;15.04;71.07
20930;BME280;21895;47.072;15.132;2023-05-29T04:26:01;96745.00;;;15.01;71.22
20930;BME280;21895;47.072;15.132;2023-05-29T04:28:28;96735.00;;;15.12;71.28
20930;BME280;21895;47.072;15.132;2023-05-29T04:30:54;96738.00;;;15.34;70.25
20930;BME280;21895;47.072;15.132;2023-05-29T04:33:22;96742.00;;;15.43;69.98
20930;BME280;21895;47.072;15.132;2023-05-29T04:35:50;96742.00;;;15.60;69.09
20930;BME280;21895;47.072;15.132;2023-05-29T04:38:17;96749.00;;;15.63;69.13
20930;BME280;21895;47.072;15.132;2023-05-29T04:40:45;96747.00;;;15.67;68.95
20930;BME280;21895;47.072;15.132;2023-05-29T04:43:12;96757.00;;;15.59;69.46
20930;BME280;21895;47.072;15.132;2023-05-29T04:45:38;96752.00;;;15.80;68.71
20930;BME280;21895;47.072;15.132;2023-05-29T04:48:05;96759.00;;;15.86;68.14
20930;BME280;21895;47.072;15.132;2023-05-29T04:50:31;96758.00;;;16.00;67.98
20930;BME280;21895;47.072;15.132;2023-05-29T04:52:58;96759.00;;;16.10;67.02
20930;BME280;21895;47.072;15.132;2023-05-29T04:55:25;96764.00;;;15.96;68.78
20930;BME280;21895;47.072;15.132;2023-05-29T04:57:53;96762.00;;;16.10;70.03
20930;BME280;21895;47.072;15.132;2023-05-29T05:00:20;96766.00;;;16.41;69.71
20930;BME280;21895;47.072;15.132;2023-05-29T05:02:49;96763.00;;;16.85;69.36
20930;BME280;21895;47.072;15.132;2023-05-29T05:05:16;96765.00;;;17.12;68.13
20930;BME280;21895;47.072;15.132;2023-05-29T05:07:42;96771.00;;;17.58;65.42
20930;BME280;21895;47.072;15.132;2023-05-29T05:10:09;96768.00;;;17.96;63.06
20930;BME280;21895;47.072;15.132;2023-05-29T05:12:36;96760.00;;;18.18;61.23
20930;BME280;21895;47.072;15.132;2023-05-29T05:15:04;96770.00;;;18.48;60.46
20930;BME280;21895;47.072;15.132;2023-05-29T05:17:31;96769.00;;;18.70;60.20
20930;BME280;21895;47.072;15.132;2023-05-29T05:19:57;96764.00;;;19.18;58.53
20930;BME280;21895;47.072;15.132;2023-05-29T05:22:24;96764.00;;;19.43;56.77
20930;BME280;21895;47.072;15.132;2023-05-29T05:24:51;96769.00;;;19.41;56.81
20930;BME280;21895;47.072;15.132;2023-05-29T05:27:19;96768.00;;;19.48;56.76
20930;BME280;21895;47.072;15.132;2023-05-29T05:29:46;96765.00;;;19.66;56.45
20930;BME280;21895;47.072;15.132;2023-05-29T05:32:12;96762.00;;;19.85;56.27
20930;BME280;21895;47.072;15.132;2023-05-29T05:34:39;96767.00;;;20.10;54.56
20930;BME280;21895;47.072;15.132;2023-05-29T05:37:06;96761.00;;;20.24;53.81
20930;BME280;21895;47.072;15.132;2023-05-29T05:39:33;96770.00;;;20.40;54.11
20930;BME280;21895;47.072;15.132;2023-05-29T05:42:00;96767.00;;;20.36;54.53
20930;BME280;21895;47.072;15.132;2023-05-29T05:44:27;96770.00;;;20.43;54.34
20930;BME280;21895;47.072;15.132;2023-05-29T05:46:54;96772.00;;;20.61;54.01
20930;BME280;21895;47.072;15.132;2023-05-29T05:49:21;96761.00;;;20.63;54.42
20930;BME280;21895;47.072;15.132;2023-05-29T05:51:47;96770.00;;;20.82;55.56
20930;BME280;21895;47.072;15.132;2023-05-29T05:54:16;96765.00;;;20.90;53.80
20930;BME280;21895;47.072;15.132;2023-05-29T05:56:43;96764.00;;;21.27;53.53
20930;BME280;21895;47.072;15.132;2023-05-29T05:59:09;96765.00;;;21.48;54.63
20930;BME280;21895;47.072;15.132;2023-05-29T06:01:36;96768.00;;;21.79;53.43
20930;BME280;21895;47.072;15.132;2023-05-29T06:04:04;96765.00;;;22.03;53.52
20930;BME280;21895;47.072;15.132;2023-05-29T06:06:31;96763.00;;;22.07;51.88
20930;BME280;21895;47.072;15.132;2023-05-29T06:08:58;96770.00;;;22.27;50.98
20930;BME280;21895;47.072;15.132;2023-05-29T06:11:25;96767.00;;;22.74;50.08
20930;BME280;21895;47.072;15.132;2023-05-29T06:13:54;96763.00;;;22.88;49.17
20930;BME280;21895;47.072;15.132;2023-05-29T06:16:20;96769.00;;;23.12;48.48
20930;BME280;21895;47.072;15.132;2023-05-29T06:18:47;96768.00;;;23.21;48.03
20930;BME280;21895;47.072;15.132;2023-05-29T06:21:14;96769.00;;;23.18;47.77
20930;BME280;21895;47.072;15.132;2023-05-29T06:23:40;96766.00;;;23.28;49.17
20930;BME280;21895;47.072;15.132;2023-05-29T06:26:07;96773.00;;;23.31;48.84
20930;BME280;21895;47.072;15.132;2023-05-29T06:28:34;96775.00;;;23.41;48.10
20930;BME280;21895;47.072;15.132;2023-05-29T06:31:00;96774.00;;;23.71;47.80
20930;BME280;21895;47.072;15.132;2023-05-29T06:33:27;96780.00;;;23.99;46.18
20930;BME280;21895;47.072;15.132;2023-05-29T06:35:56;96777.00;;;23.85;46.06
20930;BME280;21895;47.072;15.132;2023-05-29T06:38:22;96781.00;;;24.13;45.66
20930;BME280;21895;47.072;15.132;2023-05-29T06:40:49;96786.00;;;24.03;45.50
20930;BME280;21895;47.072;15.132;2023-05-29T06:43:15;96779.00;;;24.09;46.04
20930;BME280;21895;47.072;15.132;2023-05-29T06:45:42;96781.00;;;24.15;44.58
20930;BME280;21895;47.072;15.132;2023-05-29T06:48:08;96779.00;;;24.17;44.34
20930;BME280;21895;47.072;15.132;2023-05-29T06:50:35;96790.00;;;24.26;45.27
20930;BME280;21895;47.072;15.132;2023-05-29T06:53:01;96797.00;;;24.20;46.72
20930;BME280;21895;47.072;15.132;2023-05-29T06:55:28;96787.00;;;24.36;46.38
20930;BME280;21895;47.072;15.132;2023-05-29T06:57:55;96786.00;;;24.58;45.01
20930;BME280;21895;47.072;15.132;2023-05-29T07:00:21;96784.00;;;24.57;45.26
20930;BME280;21895;47.072;15.132;2023-05-29T07:02:48;96788.00;;;24.70;45.34
20930;BME280;21895;47.072;15.132;2023-05-29T07:05:15;96787.00;;;24.73;44.20
20930;BME280;21895;47.072;15.132;2023-05-29T07:07:41;96775.00;;;24.96;45.00
20930;BME280;21895;47.072;15.132;2023-05-29T07:10:09;96780.00;;;25.06;44.28
20930;BME280;21895;47.072;15.132;2023-05-29T07:12:35;96777.00;;;25.03;46.08
20930;BME280;21895;47.072;15.132;2023-05-29T07:15:02;96774.00;;;25.27;44.25
20930;BME280;21895;47.072;15.132;2023-05-29T07:17:29;96777.00;;;25.46;44.40
20930;BME280;21895;47.072;15.132;2023-05-29T07:19:56;96766.00;;;25.55;43.35
20930;BME280;21895;47.072;15.132;2023-05-29T07:22:24;96772.00;;;25.60;42.85
20930;BME280;21895;47.072;15.132;2023-05-29T07:24:51;96769.00;;;25.69;41.87
20930;BME280;21895;47.072;15.132;2023-05-29T07:27:17;96778.00;;;25.77;40.47
20930;BME280;21895;47.072;15.132;2023-05-29T07:29:44;96770.00;;;25.97;41.56
20930;BME280;21895;47.072;15.132;2023-05-29T07:32:10;96775.00;;;26.23;41.24
20930;BME280;21895;47.072;15.132;2023-05-29T07:34:37;96778.00;;;26.22;42.13
20930;BME280;21895;47.072;15.132;2023-05-29T07:37:06;96772.00;;;26.21;42.28
20930;BME280;21895;47.072;15.132;2023-05-29T07:39:35;96777.00;;;26.35;40.79
20930;BME280;21895;47.072;15.132;2023-05-29T07:42:03;96783.00;;;26.23;39.83
20930;BME280;21895;47.072;15.132;2023-05-29T07:44:29;96777.00;;;26.23;39.89
20930;BME280;21895;47.072;15.132;2023-05-29T07:46:56;96775.00;;;26.18;40.42
20930;BME280;21895;47.072;15.132;2023-05-29T07:49:23;96780.00;;;26.38;41.97
20930;BME280;21895;47.072;15.132;2023-05-29T07:51:50;96771.00;;;26.50;40.67
20930;BME280;21895;47.072;15.132;2023-05-29T07:54:16;96771.00;;;26.43;39.42
20930;BME280;21895;47.072;15.132;2023-05-29T07:56:47;96772.00;;;26.35;39.58
20930;BME280;21895;47.072;15.132;2023-05-29T07:59:13;96769.00;;;26.66;39.79
20930;BME280;21895;47.072;15.132;2023-05-29T08:01:40;96760.00;;;26.66;39.24
20930;BME280;21895;47.072;15.132;2023-05-29T08:04:07;96769.00;;;26.52;38.55
20930;BME280;21895;47.072;15.132;2023-05-29T08:06:34;96765.00;;;26.60;40.46
20930;BME280;21895;47.072;15.132;2023-05-29T08:09:00;96767.00;;;26.89;37.76
20930;BME280;21895;47.072;15.132;2023-05-29T08:11:31;96761.00;;;26.75;36.04
20930;BME280;21895;47.072;15.132;2023-05-29T08:13:58;96764.00;;;26.61;37.80
20930;BME280;21895;47.072;15.132;2023-05-29T08:16:25;96760.00;;;26.75;38.39
20930;BME280;21895;47.072;15.132;2023-05-29T08:18:53;96759.00;;;26.86;38.77
20930;BME280;21895;47.072;15.132;2023-05-29T08:21:20;96752.00;;;26.90;39.11
20930;BME280;21895;47.072;15.132;2023-05-29T08:23:46;96755.00;;;27.06;38.85
20930;BME280;21895;47.072;15.132;2023-05-29T08:26:13;96757.00;;;27.18;37.49
20930;BME280;21895;47.072;15.132;2023-05-29T08:28:39;96765.00;;;27.39;36.21
20930;BME280;21895;47.072;15.132;2023-05-29T08:31:09;96763.00;;;27.78;36.62
20930;BME280;21895;47.072;15.132;2023-05-29T08:33:35;96749.00;;;27.44;35.51
20930;BME280;21895;47.072;15.132;2023-05-29T08:36:03;96753.00;;;27.28;36.33
20930;BME280;21895;47.072;15.132;2023-05-29T08:38:29;96747.00;;;27.08;36.49
20930;BME280;21895;47.072;15.132;2023-05-29T08:40:57;96745.00;;;27.12;36.85
20930;BME280;21895;47.072;15.132;2023-05-29T08:43:31;96748.00;;;27.51;36.09
20930;BME280;21895;47.072;15.132;2023-05-29T08:46:03;96748.00;;;27.40;37.87
20930;BME280;21895;47.072;15.132;2023-05-29T08:48:30;96746.00;;;27.58;36.29
20930;BME280;21895;47.072;15.132;2023-05-29T08:50:58;96743.00;;;27.58;36.94
20930;BME280;21895;47.072;15.132;2023-05-29T08:53:28;96745.00;;;27.63;37.62
20930;BME280;21895;47.072;15.132;2023-05-29T08:55:57;96737.00;;;27.65;37.13
20930;BME280;21895;47.072;15.132;2023-05-29T08:58:26;96744.00;;;27.66;36.73
20930;BME280;21895;47.072;15.132;2023-05-29T09:00:52;96745.00;;;27.68;36.83
20930;BME280;21895;47.072;15.132;2023-05-29T09:03:19;96748.00;;;27.79;35.80
20930;BME280;21895;47.072;15.132;2023-05-29T09:05:48;96732.00;;;27.72;37.33
20930;BME280;21895;47.072;15.132;2023-05-29T09:08:15;96733.00;;;27.85;36.35
20930;BME280;21895;47.072;15.132;2023-05-29T09:10:44;96733.00;;;28.01;37.32
20930;BME280;21895;47.072;15.132;2023-05-29T09:13:12;96732.00;;;28.26;34.78
20930;BME280;21895;47.072;15.132;2023-05-29T09:15:40;96728.00;;;28.17;34.51
20930;BME280;21895;47.072;15.132;2023-05-29T09:18:10;96731.00;;;28.03;34.38
20930;BME280;21895;47.072;15.132;2023-05-29T09:20:37;96727.00;;;28.02;34.83
20930;BME280;21895;47.072;15.132;2023-05-29T09:23:07;96723.00;;;28.05;34.26
20930;BME280;21895;47.072;15.132;2023-05-29T09:25:39;96728.00;;;27.78;33.86
20930;BME280;21895;47.072;15.132;2023-05-29T09:28:08;96732.00;;;27.81;34.98
20930;BME280;21895;47.072;15.132;2023-05-29T09:30:45;96733.00;;;28.02;34.25
20930;BME280;21895;47.072;15.132;2023-05-29T09:33:14;96735.00;;;28.37;34.39
20930;BME280;21895;47.072;15.132;2023-05-29T09:35:48;96730.00;;;28.14;33.63
20930;BME280;21895;47.072;15.132;2023-05-29T09:38:18;96729.00;;;27.94;35.44
20930;BME280;21895;47.072;15.132;2023-05-29T09:40:48;96732.00;;;27.89;34.32
20930;BME280;21895;47.072;15.132;2023-05-29T09:43:17;96730.00;;;28.19;34.81
20930;BME280;21895;47.072;15.132;2023-05-29T09:45:48;96734.00;;;28.32;34.57
20930;BME280;21895;47.072;15.132;2023-05-29T09:48:22;96732.00;;;28.40;35.98
20930;BME280;21895;47.072;15.132;2023-05-29T09:50:49;96734.00;;;28.38;34.64
20930;BME280;21895;47.072;15.132;2023-05-29T09:53:22;96730.00;;;28.49;34.81
20930;BME280;21895;47.072;15.132;2023-05-29T09:55:53;96722.00;;;28.56;34.27
20930;BME280;21895;47.072;15.132;2023-05-29T09:58:24;96725.00;;;28.62;35.15
20930;BME280;21895;47.072;15.132;2023-05-29T10:00:52;96731.00;;;28.59;35.42
20930;BME280;21895;47.072;15.132;2023-05-29T10:03:19;96727.00;;;28.02;34.87
20930;BME280;21895;47.072;15.132;2023-05-29T10:05:53;96721.00;;;27.44;35.37
20930;BME280;21895;47.072;15.132;2023-05-29T10:08:22;96726.00;;;27.26;34.89
20930;BME280;21895;47.072;15.132;2023-05-29T10:11:02;96715.00;;;27.35;35.72
20930;BME280;21895;47.072;15.132;2023-05-29T10:13:38;96714.00;;;27.81;34.49
20930;BME280;21895;47.072;15.132;2023-05-29T10:16:11;96715.00;;;27.85;35.17
20930;BME280;21895;47.072;15.132;2023-05-29T10:18:54;96719.00;;;28.18;34.12
20930;BME280;21895;47.072;15.132;2023-05-29T10:21:22;96705.00;;;28.21;34.11
20930;BME280;21895;47.072;15.132;2023-05-29T10:23:51;96711.00;;;28.11;33.91
20930;BME280;21895;47.072;15.132;2023-05-29T10:26:29;96706.00;;;28.23;34.00
20930;BME280;21895;47.072;15.132;2023-05-29T10:29:36;96704.00;;;28.62;33.49
20930;BME280;21895;47.072;15.132;2023-05-29T10:35:31;96708.00;;;28.95;33.17
20930;BME280;21895;47.072;15.132;2023-05-29T10:38:11;96691.00;;;29.05;33.07
20930;BME280;21895;47.072;15.132;2023-05-29T10:40:39;96700.00;;;28.67;31.65
20930;BME280;21895;47.072;15.132;2023-05-29T10:43:05;96699.00;;;28.42;31.22
20930;BME280;21895;47.072;15.132;2023-05-29T10:45:56;96698.00;;;28.31;32.30
20930;BME280;21895;47.072;15.132;2023-05-29T10:48:44;96702.00;;;28.45;34.51
20930;BME280;21895;47.072;15.132;2023-05-29T10:51:29;96698.00;;;28.68;32.60
20930;BME280;21895;47.072;15.132;2023-05-29T10:53:59;96703.00;;;28.57;33.42
20930;BME280;21895;47.072;15.132;2023-05-29T10:56:29;96706.00;;;28.57;34.36
20930;BME280;21895;47.072;15.132;2023-05-29T10:58:58;96706.00;;;28.83;32.43
20930;BME280;21895;47.072;15.132;2023-05-29T11:01:31;96699.00;;;28.36;32.51
20930;BME280;21895;47.072;15.132;2023-05-29T11:04:26;96689.00;;;28.55;31.58
20930;BME280;21895;47.072;15.132;2023-05-29T11:06:53;96697.00;;;28.30;32.49
20930;BME280;21895;47.072;15.132;2023-05-29T11:09:37;96699.00;;;28.24;32.14
20930;BME280;21895;47.072;15.132;2023-05-29T11:13:04;96691.00;;;28.35;31.85
20930;BME280;21895;47.072;15.132;2023-05-29T11:15:33;96688.00;;;28.19;33.47
20930;BME280;21895;47.072;15.132;2023-05-29T11:18:12;96691.00;;;27.67;33.37
20930;BME280;21895;47.072;15.132;2023-05-29T11:22:16;96687.00;;;27.29;34.55
20930;BME280;21895;47.072;15.132;2023-05-29T11:24:48;96682.00;;;27.02;34.80
20930;BME280;21895;47.072;15.132;2023-05-29T11:27:15;96678.00;;;26.99;35.29
20930;BME280;21895;47.072;15.132;2023-05-29T11:29:41;96678.00;;;27.24;33.49
20930;BME280;21895;47.072;15.132;2023-05-29T11:32:14;96685.00;;;27.43;34.44
20930;BME280;21895;47.072;15.132;2023-05-29T11:34:45;96674.00;;;27.65;34.08
20930;BME280;21895;47.072;15.132;2023-05-29T11:37:12;96682.00;;;28.17;33.89
20930;BME280;21895;47.072;15.132;2023-05-29T11:39:41;96680.00;;;28.33;34.05
20930;BME280;21895;47.072;15.132;2023-05-29T11:42:08;96686.00;;;27.95;32.97
20930;BME280;21895;47.072;15.132;2023-05-29T11:44:35;96679.00;;;27.83;33.61
20930;BME280;21895;47.072;15.132;2023-05-29T11:47:06;96670.00;;;27.90;33.57
20930;BME280;21895;47.072;15.132;2023-05-29T11:49:36;96690.00;;;27.36;34.44
20930;BME280;21895;47.072;15.132;2023-05-29T11:52:11;96675.00;;;27.25;35.53
20930;BME280;21895;47.072;15.132;2023-05-29T11:54:44;96675.00;;;27.48;35.37
20930;BME280;21895;47.072;15.132;2023-05-29T11:57:20;96679.00;;;27.99;34.08
20930;BME280;21895;47.072;15.132;2023-05-29T11:59:50;96677.00;;;28.05;32.81
20930;BME280;21895;47.072;15.132;2023-05-29T12:02:18;96676.00;;;28.06;31.87
20930;BME280;21895;47.072;15.132;2023-05-29T12:05:06;96675.00;;;28.16;33.42
20930;BME280;21895;47.072;15.132;2023-05-29T12:07:36;96675.00;;;28.21;32.82
20930;BME280;21895;47.072;15.132;2023-05-29T12:10:36;96669.00;;;28.26;33.45
20930;BME280;21895;47.072;15.132;2023-05-29T12:13:02;96670.00;;;28.34;31.87
20930;BME280;21895;47.072;15.132;2023-05-29T12:15:29;96674.00;;;28.11;32.65
20930;BME280;21895;47.072;15.132;2023-05-29T12:17:56;96661.00;;;28.05;32.79
20930;BME280;21895;47.072;15.132;2023-05-29T12:20:25;96657.00;;;28.11;32.73
20930;BME280;21895;47.072;15.132;2023-05-29T12:23:00;96653.00;;;28.09;33.12
20930;BME280;21895;47.072;15.132;2023-05-29T12:25:28;96660.00;;;28.24;33.46
20930;BME280;21895;47.072;15.132;2023-05-29T12:27:57;96654.00;;;28.22;33.39
20930;BME280;21895;47.072;15.132;2023-05-29T12:30:24;96650.00;;;28.36;32.66
20930;BME280;21895;47.072;15.132;2023-05-29T12:32:59;96644.00;;;28.21;32.38
20930;BME280;21895;47.072;15.132;2023-05-29T12:35:29;96652.00;;;28.12;32.83
20930;BME280;21895;47.072;15.132;2023-05-29T12:38:05;96657.00;;;28.15;32.65
20930;BME280;21895;47.072;15.132;2023-05-29T12:40:35;96652.00;;;28.28;32.08
20930;BME280;21895;47.072;15.132;2023-05-29T12:43:06;96653.00;;;28.21;32.24
20930;BME280;21895;47.072;15.132;2023-05-29T12:45:34;96649.00;;;28.15;32.73
20930;BME280;21895;47.072;15.132;2023-05-29T12:48:05;96645.00;;;28.11;32.47
20930;BME280;21895;47.072;15.132;2023-05-29T12:50:37;96649.00;;;28.05;32.17
20930;BME280;21895;47.072;15.132;2023-05-29T12:53:11;96648.00;;;27.46;32.42
20930;BME280;21895;47.072;15.132;2023-05-29T12:55:43;96650.00;;;27.51;33.00
20930;BME280;21895;47.072;15.132;2023-05-29T12:58:15;96642.00;;;27.67;32.58
20930;BME280;21895;47.072;15.132;2023-05-29T13:00:46;96638.00;;;27.99;31.97
20930;BME280;21895;47.072;15.132;2023-05-29T13:03:13;96638.00;;;28.40;31.16
20930;BME280;21895;47.072;15.132;2023-05-29T13:05:41;96639.00;;;28.72;32.06
20930;BME280;21895;47.072;15.132;2023-05-29T13:08:07;96637.00;;;28.76;31.31
20930;BME280;21895;47.072;15.132;2023-05-29T13:10:34;96641.00;;;28.61;31.98
20930;BME280;21895;47.072;15.132;2023-05-29T13:13:01;96641.00;;;28.33;31.68